sensor_id;sensor_type;location;lat;lon;timestamp;P1;durP1;ratioP1;P2;durP2;ratioP2
11090;SDS011;5599;52.210;21.046;2023-03-19T00:01:47;22.90;;;15.90;;
11090;SDS011;5599;52.210;21.046;2023-03-19T00:04:17;20.93;;;15.47;;
11090;SDS011;5599;52.210;21.046;2023-03-19T00:06:47;22.47;;;15.40;;
11090;SDS011;5599;52.210;21.046;2023-03-19T00:09:16;25.50;;;15.37;;
11090;SDS011;5599;52.210;21.046;2023-03-19T00:11:46;22.40;;;15.43;;
11090;SDS011;5599;52.210;21.046;2023-03-19T00:14:15;21.73;;;15.33;;
11090;SDS011;5599;52.210;21.046;2023-03-19T00:16:46;20.77;;;15.77;;
11090;SDS011;5599;52.210;21.046;2023-03-19T00:19:16;23.60;;;15.10;;
11090;SDS011;5599;52.210;21.046;2023-03-19T00:21:45;20.73;;;14.10;;
11090;SDS011;5599;52.210;21.046;2023-03-19T00:24:14;24.30;;;16.17;;
11090;SDS011;5599;52.210;21.046;2023-03-19T00:26:43;20.90;;;15.57;;
11090;SDS011;5599;52.210;21.046;2023-03-19T00:29:13;20.23;;;14.20;;
11090;SDS011;5599;52.210;21.046;2023-03-19T00:31:43;24.60;;;15.33;;
11090;SDS011;5599;52.210;21.046;2023-03-19T00:34:13;26.60;;;15.73;;
11090;SDS011;5599;52.210;21.046;2023-03-19T00:36:45;22.20;;;15.30;;
11090;SDS011;5599;52.210;21.046;2023-03-19T00:39:15;22.33;;;15.33;;
11090;SDS011;5599;52.210;21.046;2023-03-19T00:41:44;24.40;;;15.70;;
11090;SDS011;5599;52.210;21.046;2023-03-19T00:44:16;21.97;;;15.20;;
11090;SDS011;5599;52.210;21.046;2023-03-19T00:46:47;21.70;;;15.10;;
11090;SDS011;5599;52.210;21.046;2023-03-19T00:49:16;22.67;;;15.53;;
11090;SDS011;5599;52.210;21.046;2023-03-19T00:51:46;24.87;;;15.03;;
11090;SDS011;5599;52.210;21.046;2023-03-19T00:54:15;22.47;;;14.63;;
11090;SDS011;5599;52.210;21.046;2023-03-19T00:56:44;23.40;;;15.80;;
11090;SDS011;5599;52.210;21.046;2023-03-19T00:59:13;22.03;;;15.03;;
11090;SDS011;5599;52.210;21.046;2023-03-19T01:01:43;20.13;;;14.20;;
11090;SDS011;5599;52.210;21.046;2023-03-19T01:04:14;23.23;;;15.60;;
11090;SDS011;5599;52.210;21.046;2023-03-19T01:06:43;23.13;;;15.00;;
11090;SDS011;5599;52.210;21.046;2023-03-19T01:09:13;23.47;;;16.47;;
11090;SDS011;5599;52.210;21.046;2023-03-19T01:11:42;22.77;;;15.10;;
11090;SDS011;5599;52.210;21.046;2023-03-19T01:14:11;22.03;;;15.23;;
11090;SDS011;5599;52.210;21.046;2023-03-19T01:16:44;23.20;;;15.67;;
11090;SDS011;5599;52.210;21.046;2023-03-19T01:19:15;22.47;;;14.90;;
11090;SDS011;5599;52.210;21.046;2023-03-19T01:21:44;24.53;;;15.37;;
11090;SDS011;5599;52.210;21.046;2023-03-19T01:24:19;21.30;;;14.20;;
11090;SDS011;5599;52.210;21.046;2023-03-19T01:26:52;23.07;;;15.30;;
11090;SDS011;5599;52.210;21.046;2023-03-19T01:29:27;27.47;;;15.57;;
11090;SDS011;5599;52.210;21.046;2023-03-19T01:32:00;24.70;;;15.13;;
11090;SDS011;5599;52.210;21.046;2023-03-19T01:34:42;22.20;;;15.50;;
11090;SDS011;5599;52.210;21.046;2023-03-19T01:37:15;25.37;;;16.77;;
11090;SDS011;5599;52.210;21.046;2023-03-19T01:39:45;22.50;;;15.40;;
11090;SDS011;5599;52.210;21.046;2023-03-19T01:42:14;22.63;;;15.63;;
11090;SDS011;5599;52.210;21.046;2023-03-19T01:48:24;24.70;;;15.30;;
11090;SDS011;5599;52.210;21.046;2023-03-19T01:51:08;22.80;;;14.80;;
11090;SDS011;5599;52.210;21.046;2023-03-19T01:53:54;24.90;;;15.77;;
11090;SDS011;5599;52.210;21.046;2023-03-19T01:56:33;21.57;;;15.27;;
11090;SDS011;5599;52.210;21.046;2023-03-19T01:59:24;23.53;;;15.20;;
11090;SDS011;5599;52.210;21.046;2023-03-19T02:02:29;20.80;;;16.00;;
11090;SDS011;5599;52.210;21.046;2023-03-19T02:05:14;20.80;;;15.50;;
11090;SDS011;5599;52.210;21.046;2023-03-19T02:07:58;24.67;;;15.90;;
11090;SDS011;5599;52.210;21.046;2023-03-19T02:10:30;22.70;;;15.43;;
11090;SDS011;5599;52.210;21.046;2023-03-19T02:13:00;22.87;;;16.13;;
11090;SDS011;5599;52.210;21.046;2023-03-19T02:15:29;24.73;;;15.20;;
11090;SDS011;5599;52.210;21.046;2023-03-19T02:17:59;21.33;;;15.33;;
11090;SDS011;5599;52.210;21.046;2023-03-19T02:20:29;29.47;;;16.70;;
11090;SDS011;5599;52.210;21.046;2023-03-19T02:23:06;20.87;;;15.53;;
11090;SDS011;5599;52.210;21.046;2023-03-19T02:26:02;23.93;;;15.23;;
11090;SDS011;5599;52.210;21.046;2023-03-19T02:28:33;25.37;;;15.63;;
11090;SDS011;5599;52.210;21.046;2023-03-19T02:31:07;27.17;;;16.07;;
11090;SDS011;5599;52.210;21.046;2023-03-19T02:33:37;23.23;;;15.87;;
11090;SDS011;5599;52.210;21.046;2023-03-19T02:36:08;20.90;;;15.17;;
11090;SDS011;5599;52.210;21.046;2023-03-19T02:38:41;22.07;;;15.43;;
11090;SDS011;5599;52.210;21.046;2023-03-19T02:41:15;22.70;;;15.40;;
11090;SDS011;5599;52.210;21.046;2023-03-19T02:43:44;22.83;;;15.10;;
11090;SDS011;5599;52.210;21.046;2023-03-19T02:46:14;25.37;;;16.43;;
11090;SDS011;5599;52.210;21.046;2023-03-19T02:48:43;24.10;;;15.50;;
11090;SDS011;5599;52.210;21.046;2023-03-19T02:51:12;22.73;;;15.93;;
11090;SDS011;5599;52.210;21.046;2023-03-19T02:53:42;23.87;;;16.47;;
11090;SDS011;5599;52.210;21.046;2023-03-19T02:56:11;20.40;;;15.47;;
11090;SDS011;5599;52.210;21.046;2023-03-19T02:58:42;20.03;;;15.50;;
11090;SDS011;5599;52.210;21.046;2023-03-19T03:01:12;22.60;;;15.63;;
11090;SDS011;5599;52.210;21.046;2023-03-19T03:03:41;23.17;;;15.57;;
11090;SDS011;5599;52.210;21.046;2023-03-19T03:06:11;20.77;;;15.33;;
11090;SDS011;5599;52.210;21.046;2023-03-19T03:08:40;23.53;;;15.37;;
11090;SDS011;5599;52.210;21.046;2023-03-19T03:11:10;21.10;;;15.30;;
11090;SDS011;5599;52.210;21.046;2023-03-19T03:13:39;25.70;;;16.37;;
11090;SDS011;5599;52.210;21.046;2023-03-19T03:16:10;24.13;;;15.83;;
11090;SDS011;5599;52.210;21.046;2023-03-19T03:18:41;20.60;;;14.63;;
11090;SDS011;5599;52.210;21.046;2023-03-19T03:21:10;23.90;;;15.80;;
11090;SDS011;5599;52.210;21.046;2023-03-19T03:23:39;21.97;;;15.23;;
11090;SDS011;5599;52.210;21.046;2023-03-19T03:26:09;22.23;;;14.93;;
11090;SDS011;5599;52.210;21.046;2023-03-19T03:28:38;23.17;;;15.50;;
11090;SDS011;5599;52.210;21.046;2023-03-19T03:31:08;22.40;;;16.50;;
11090;SDS011;5599;52.210;21.046;2023-03-19T03:33:39;21.80;;;15.57;;
11090;SDS011;5599;52.210;21.046;2023-03-19T03:36:09;28.50;;;16.37;;
11090;SDS011;5599;52.210;21.046;2023-03-19T03:38:38;20.63;;;15.47;;
11090;SDS011;5599;52.210;21.046;2023-03-19T03:41:08;22.37;;;15.80;;
11090;SDS011;5599;52.210;21.046;2023-03-19T03:43:37;24.80;;;16.07;;
11090;SDS011;5599;52.210;21.046;2023-03-19T03:46:07;24.07;;;15.73;;
11090;SDS011;5599;52.210;21.046;2023-03-19T03:48:38;24.47;;;15.67;;
11090;SDS011;5599;52.210;21.046;2023-03-19T03:51:07;24.80;;;16.03;;
11090;SDS011;5599;52.210;21.046;2023-03-19T03:53:37;23.03;;;16.13;;
11090;SDS011;5599;52.210;21.046;2023-03-19T03:56:07;24.27;;;16.53;;
11090;SDS011;5599;52.210;21.046;2023-03-19T03:58:36;22.63;;;15.50;;
11090;SDS011;5599;52.210;21.046;2023-03-19T04:01:06;22.87;;;15.83;;
11090;SDS011;5599;52.210;21.046;2023-03-19T04:03:35;22.50;;;15.77;;
11090;SDS011;5599;52.210;21.046;2023-03-19T04:06:06;25.63;;;16.67;;
11090;SDS011;5599;52.210;21.046;2023-03-19T04:08:36;22.33;;;15.77;;
11090;SDS011;5599;52.210;21.046;2023-03-19T04:11:06;22.17;;;15.57;;
11090;SDS011;5599;52.210;21.046;2023-03-19T04:13:36;22.67;;;16.00;;
11090;SDS011;5599;52.210;21.046;2023-03-19T04:16:06;22.23;;;15.57;;
11090;SDS011;5599;52.210;21.046;2023-03-19T04:18:36;30.67;;;16.60;;
11090;SDS011;5599;52.210;21.046;2023-03-19T04:21:07;22.13;;;15.77;;
11090;SDS011;5599;52.210;21.046;2023-03-19T04:23:36;23.07;;;15.47;;
11090;SDS011;5599;52.210;21.046;2023-03-19T04:26:06;24.63;;;16.63;;
11090;SDS011;5599;52.210;21.046;2023-03-19T04:28:35;23.47;;;16.60;;
11090;SDS011;5599;52.210;21.046;2023-03-19T04:31:05;22.00;;;15.50;;
11090;SDS011;5599;52.210;21.046;2023-03-19T04:33:40;23.30;;;16.17;;
11090;SDS011;5599;52.210;21.046;2023-03-19T04:36:11;24.50;;;15.50;;
11090;SDS011;5599;52.210;21.046;2023-03-19T04:38:40;26.03;;;16.50;;
11090;SDS011;5599;52.210;21.046;2023-03-19T04:41:10;22.97;;;15.43;;
11090;SDS011;5599;52.210;21.046;2023-03-19T04:43:49;25.73;;;16.30;;
11090;SDS011;5599;52.210;21.046;2023-03-19T04:46:18;23.67;;;15.77;;
11090;SDS011;5599;52.210;21.046;2023-03-19T04:48:48;22.03;;;16.17;;
11090;SDS011;5599;52.210;21.046;2023-03-19T04:51:19;20.63;;;15.03;;
11090;SDS011;5599;52.210;21.046;2023-03-19T04:53:49;24.30;;;16.20;;
11090;SDS011;5599;52.210;21.046;2023-03-19T04:56:18;25.27;;;16.60;;
11090;SDS011;5599;52.210;21.046;2023-03-19T04:58:48;25.37;;;17.87;;
11090;SDS011;5599;52.210;21.046;2023-03-19T05:01:17;25.63;;;16.80;;
11090;SDS011;5599;52.210;21.046;2023-03-19T05:03:59;25.07;;;16.70;;
11090;SDS011;5599;52.210;21.046;2023-03-19T05:06:32;23.13;;;16.23;;
11090;SDS011;5599;52.210;21.046;2023-03-19T05:09:03;23.60;;;16.63;;
11090;SDS011;5599;52.210;21.046;2023-03-19T05:11:34;27.53;;;17.00;;
11090;SDS011;5599;52.210;21.046;2023-03-19T05:14:08;23.53;;;15.97;;
11090;SDS011;5599;52.210;21.046;2023-03-19T05:17:04;22.17;;;15.57;;
11090;SDS011;5599;52.210;21.046;2023-03-19T05:19:45;24.07;;;15.47;;
11090;SDS011;5599;52.210;21.046;2023-03-19T05:22:17;21.73;;;15.70;;
11090;SDS011;5599;52.210;21.046;2023-03-19T05:24:47;24.67;;;16.00;;
11090;SDS011;5599;52.210;21.046;2023-03-19T05:27:16;24.33;;;16.97;;
11090;SDS011;5599;52.210;21.046;2023-03-19T05:29:51;20.60;;;15.07;;
11090;SDS011;5599;52.210;21.046;2023-03-19T05:32:39;18.60;;;14.67;;
11090;SDS011;5599;52.210;21.046;2023-03-19T05:35:18;21.40;;;14.77;;
11090;SDS011;5599;52.210;21.046;2023-03-19T05:37:49;23.63;;;14.87;;
11090;SDS011;5599;52.210;21.046;2023-03-19T05:40:19;23.53;;;14.93;;
11090;SDS011;5599;52.210;21.046;2023-03-19T05:42:50;18.53;;;13.80;;
11090;SDS011;5599;52.210;21.046;2023-03-19T05:45:22;22.37;;;14.77;;
11090;SDS011;5599;52.210;21.046;2023-03-19T05:47:54;19.33;;;14.30;;
11090;SDS011;5599;52.210;21.046;2023-03-19T05:50:24;19.07;;;14.67;;
11090;SDS011;5599;52.210;21.046;2023-03-19T05:53:24;22.57;;;14.63;;
11090;SDS011;5599;52.210;21.046;2023-03-19T05:56:12;21.33;;;14.93;;
11090;SDS011;5599;52.210;21.046;2023-03-19T05:58:59;19.40;;;14.83;;
11090;SDS011;5599;52.210;21.046;2023-03-19T06:01:34;21.23;;;15.75;;
11090;SDS011;5599;52.210;21.046;2023-03-19T06:04:04;19.52;;;15.45;;
11090;SDS011;5599;52.210;21.046;2023-03-19T06:06:33;19.40;;;15.05;;
11090;SDS011;5599;52.210;21.046;2023-03-19T06:09:04;17.23;;;15.13;;
11090;SDS011;5599;52.210;21.046;2023-03-19T06:11:37;17.52;;;14.30;;
11090;SDS011;5599;52.210;21.046;2023-03-19T06:14:27;19.55;;;15.15;;
11090;SDS011;5599;52.210;21.046;2023-03-19T06:17:15;18.60;;;16.13;;
11090;SDS011;5599;52.210;21.046;2023-03-19T06:19:46;18.05;;;15.25;;
11090;SDS011;5599;52.210;21.046;2023-03-19T06:22:16;18.35;;;14.70;;
11090;SDS011;5599;52.210;21.046;2023-03-19T06:24:47;17.83;;;15.23;;
11090;SDS011;5599;52.210;21.046;2023-03-19T06:27:16;16.77;;;15.02;;
11090;SDS011;5599;52.210;21.046;2023-03-19T06:29:46;17.83;;;14.55;;
11090;SDS011;5599;52.210;21.046;2023-03-19T06:32:21;18.63;;;16.05;;
11090;SDS011;5599;52.210;21.046;2023-03-19T06:34:51;17.30;;;15.15;;
11090;SDS011;5599;52.210;21.046;2023-03-19T06:37:22;17.92;;;15.25;;
11090;SDS011;5599;52.210;21.046;2023-03-19T06:39:54;17.65;;;15.20;;
11090;SDS011;5599;52.210;21.046;2023-03-19T06:42:24;18.63;;;15.77;;
11090;SDS011;5599;52.210;21.046;2023-03-19T06:44:53;17.70;;;15.02;;
11090;SDS011;5599;52.210;21.046;2023-03-19T06:47:23;22.25;;;15.93;;
11090;SDS011;5599;52.210;21.046;2023-03-19T06:49:52;17.83;;;15.05;;
11090;SDS011;5599;52.210;21.046;2023-03-19T06:52:22;18.95;;;15.00;;
11090;SDS011;5599;52.210;21.046;2023-03-19T06:54:51;18.65;;;15.30;;
11090;SDS011;5599;52.210;21.046;2023-03-19T06:57:23;18.42;;;15.50;;
11090;SDS011;5599;52.210;21.046;2023-03-19T06:59:53;16.88;;;14.63;;
11090;SDS011;5599;52.210;21.046;2023-03-19T07:02:22;18.55;;;15.50;;
11090;SDS011;5599;52.210;21.046;2023-03-19T07:04:52;21.13;;;16.05;;
11090;SDS011;5599;52.210;21.046;2023-03-19T07:07:21;18.27;;;15.77;;
11090;SDS011;5599;52.210;21.046;2023-03-19T07:09:51;18.58;;;15.60;;
11090;SDS011;5599;52.210;21.046;2023-03-19T07:12:22;17.90;;;14.73;;
11090;SDS011;5599;52.210;21.046;2023-03-19T07:14:54;20.60;;;16.50;;
11090;SDS011;5599;52.210;21.046;2023-03-19T07:17:24;18.50;;;15.52;;
11090;SDS011;5599;52.210;21.046;2023-03-19T07:19:53;19.92;;;15.80;;
11090;SDS011;5599;52.210;21.046;2023-03-19T07:22:22;19.27;;;16.13;;
11090;SDS011;5599;52.210;21.046;2023-03-19T07:24:52;18.45;;;14.98;;
11090;SDS011;5599;52.210;21.046;2023-03-19T07:27:23;17.85;;;15.25;;
11090;SDS011;5599;52.210;21.046;2023-03-19T07:29:52;20.70;;;15.82;;
11090;SDS011;5599;52.210;21.046;2023-03-19T07:32:22;20.02;;;15.68;;
11090;SDS011;5599;52.210;21.046;2023-03-19T07:34:51;20.52;;;15.52;;
11090;SDS011;5599;52.210;21.046;2023-03-19T07:37:21;19.75;;;15.55;;
11090;SDS011;5599;52.210;21.046;2023-03-19T07:39:50;16.73;;;14.15;;
11090;SDS011;5599;52.210;21.046;2023-03-19T07:42:19;16.58;;;14.88;;
11090;SDS011;5599;52.210;21.046;2023-03-19T07:44:50;19.30;;;15.93;;
11090;SDS011;5599;52.210;21.046;2023-03-19T07:47:21;18.77;;;14.40;;
11090;SDS011;5599;52.210;21.046;2023-03-19T07:49:55;18.08;;;15.38;;
11090;SDS011;5599;52.210;21.046;2023-03-19T07:52:25;16.65;;;14.75;;
11090;SDS011;5599;52.210;21.046;2023-03-19T07:54:55;16.20;;;14.02;;
11090;SDS011;5599;52.210;21.046;2023-03-19T07:57:24;15.98;;;13.70;;
11090;SDS011;5599;52.210;21.046;2023-03-19T07:59:55;15.88;;;13.27;;
11090;SDS011;5599;52.210;21.046;2023-03-19T08:02:24;19.65;;;17.08;;
11090;SDS011;5599;52.210;21.046;2023-03-19T08:04:53;16.55;;;14.13;;
11090;SDS011;5599;52.210;21.046;2023-03-19T08:07:23;16.05;;;13.52;;
11090;SDS011;5599;52.210;21.046;2023-03-19T08:09:52;16.50;;;13.65;;
11090;SDS011;5599;52.210;21.046;2023-03-19T08:12:23;16.33;;;14.32;;
11090;SDS011;5599;52.210;21.046;2023-03-19T08:14:54;15.77;;;13.82;;
11090;SDS011;5599;52.210;21.046;2023-03-19T08:17:24;18.15;;;12.93;;
11090;SDS011;5599;52.210;21.046;2023-03-19T08:19:53;14.15;;;12.65;;
11090;SDS011;5599;52.210;21.046;2023-03-19T08:22:22;19.85;;;16.48;;
11090;SDS011;5599;52.210;21.046;2023-03-19T08:24:52;14.57;;;13.05;;
11090;SDS011;5599;52.210;21.046;2023-03-19T08:27:21;17.58;;;13.25;;
11090;SDS011;5599;52.210;21.046;2023-03-19T08:29:51;15.45;;;12.57;;
11090;SDS011;5599;52.210;21.046;2023-03-19T08:32:21;15.60;;;13.55;;
11090;SDS011;5599;52.210;21.046;2023-03-19T08:34:51;15.35;;;12.73;;
11090;SDS011;5599;52.210;21.046;2023-03-19T08:37:20;14.13;;;12.63;;
11090;SDS011;5599;52.210;21.046;2023-03-19T08:39:50;14.57;;;12.25;;
11090;SDS011;5599;52.210;21.046;2023-03-19T08:42:19;15.07;;;12.55;;
11090;SDS011;5599;52.210;21.046;2023-03-19T08:44:49;14.90;;;12.82;;
11090;SDS011;5599;52.210;21.046;2023-03-19T08:47:19;13.48;;;12.07;;
11090;SDS011;5599;52.210;21.046;2023-03-19T08:49:51;14.82;;;12.98;;
11090;SDS011;5599;52.210;21.046;2023-03-19T08:52:22;14.88;;;13.25;;
11090;SDS011;5599;52.210;21.046;2023-03-19T08:54:51;14.30;;;12.02;;
11090;SDS011;5599;52.210;21.046;2023-03-19T08:57:20;17.25;;;12.48;;
11090;SDS011;5599;52.210;21.046;2023-03-19T08:59:51;14.88;;;12.40;;
11090;SDS011;5599;52.210;21.046;2023-03-19T09:02:20;16.50;;;11.63;;
11090;SDS011;5599;52.210;21.046;2023-03-19T09:04:49;13.90;;;12.00;;
11090;SDS011;5599;52.210;21.046;2023-03-19T09:07:21;13.50;;;11.32;;
11090;SDS011;5599;52.210;21.046;2023-03-19T09:09:50;13.43;;;11.93;;
11090;SDS011;5599;52.210;21.046;2023-03-19T09:12:19;13.27;;;11.60;;
11090;SDS011;5599;52.210;21.046;2023-03-19T09:14:49;13.35;;;11.65;;
11090;SDS011;5599;52.210;21.046;2023-03-19T09:17:18;13.85;;;12.18;;
11090;SDS011;5599;52.210;21.046;2023-03-19T09:19:48;12.38;;;10.93;;
11090;SDS011;5599;52.210;21.046;2023-03-19T09:22:18;14.45;;;11.98;;
11090;SDS011;5599;52.210;21.046;2023-03-19T09:24:48;13.00;;;11.38;;
11090;SDS011;5599;52.210;21.046;2023-03-19T09:27:18;13.77;;;11.73;;
11090;SDS011;5599;52.210;21.046;2023-03-19T09:29:47;11.98;;;10.77;;
11090;SDS011;5599;52.210;21.046;2023-03-19T09:32:16;11.82;;;10.35;;
11090;SDS011;5599;52.210;21.046;2023-03-19T09:34:46;11.50;;;10.30;;
11090;SDS011;5599;52.210;21.046;2023-03-19T09:37:15;11.60;;;10.40;;
11090;SDS011;5599;52.210;21.046;2023-03-19T09:39:47;10.98;;;9.07;;
11090;SDS011;5599;52.210;21.046;2023-03-19T09:42:19;11.50;;;10.07;;
11090;SDS011;5599;52.210;21.046;2023-03-19T09:44:59;11.43;;;9.32;;
11090;SDS011;5599;52.210;21.046;2023-03-19T09:47:29;10.55;;;9.18;;
11090;SDS011;5599;52.210;21.046;2023-03-19T09:50:01;11.93;;;9.55;;
11090;SDS011;5599;52.210;21.046;2023-03-19T09:52:37;10.38;;;9.27;;
11090;SDS011;5599;52.210;21.046;2023-03-19T09:55:14;10.10;;;9.02;;
11090;SDS011;5599;52.210;21.046;2023-03-19T09:57:59;11.18;;;8.68;;
11090;SDS011;5599;52.210;21.046;2023-03-19T10:00:31;9.90;;;8.80;;
11090;SDS011;5599;52.210;21.046;2023-03-19T10:03:04;9.82;;;8.82;;
11090;SDS011;5599;52.210;21.046;2023-03-19T10:05:43;9.55;;;8.52;;
11090;SDS011;5599;52.210;21.046;2023-03-19T10:08:26;10.30;;;9.23;;
11090;SDS011;5599;52.210;21.046;2023-03-19T10:11:23;11.05;;;9.02;;
11090;SDS011;5599;52.210;21.046;2023-03-19T10:14:07;9.93;;;8.93;;
11090;SDS011;5599;52.210;21.046;2023-03-19T10:16:49;11.32;;;10.13;;
11090;SDS011;5599;52.210;21.046;2023-03-19T10:19:23;9.27;;;8.38;;
11090;SDS011;5599;52.210;21.046;2023-03-19T10:22:00;9.38;;;8.38;;
11090;SDS011;5599;52.210;21.046;2023-03-19T10:24:33;8.77;;;7.88;;
11090;SDS011;5599;52.210;21.046;2023-03-19T10:27:09;9.63;;;8.63;;
11090;SDS011;5599;52.210;21.046;2023-03-19T10:29:41;9.40;;;8.40;;
11090;SDS011;5599;52.210;21.046;2023-03-19T10:32:13;9.68;;;7.93;;
11090;SDS011;5599;52.210;21.046;2023-03-19T10:34:46;9.55;;;8.13;;
11090;SDS011;5599;52.210;21.046;2023-03-19T10:37:17;13.50;;;10.35;;
11090;SDS011;5599;52.210;21.046;2023-03-19T10:39:49;9.85;;;8.30;;
11090;SDS011;5599;52.210;21.046;2023-03-19T10:42:33;9.27;;;7.97;;
11090;SDS011;5599;52.210;21.046;2023-03-19T10:45:13;9.10;;;8.20;;
11090;SDS011;5599;52.210;21.046;2023-03-19T10:47:52;9.43;;;8.20;;
11090;SDS011;5599;52.210;21.046;2023-03-19T10:50:26;9.65;;;8.75;;
11090;SDS011;5599;52.210;21.046;2023-03-19T10:53:01;9.93;;;7.93;;
11090;SDS011;5599;52.210;21.046;2023-03-19T10:55:33;8.88;;;8.00;;
11090;SDS011;5599;52.210;21.046;2023-03-19T10:58:06;9.95;;;8.02;;
11090;SDS011;5599;52.210;21.046;2023-03-19T11:00:44;8.85;;;7.95;;
11090;SDS011;5599;52.210;21.046;2023-03-19T11:03:25;9.93;;;7.88;;
11090;SDS011;5599;52.210;21.046;2023-03-19T11:06:05;9.50;;;8.52;;
11090;SDS011;5599;52.210;21.046;2023-03-19T11:08:49;9.70;;;7.85;;
11090;SDS011;5599;52.210;21.046;2023-03-19T11:11:23;9.00;;;7.60;;
11090;SDS011;5599;52.210;21.046;2023-03-19T11:14:11;9.98;;;7.65;;
11090;SDS011;5599;52.210;21.046;2023-03-19T11:16:50;8.82;;;7.53;;
11090;SDS011;5599;52.210;21.046;2023-03-19T11:19:24;8.95;;;8.05;;
11090;SDS011;5599;52.210;21.046;2023-03-19T11:22:06;8.88;;;7.47;;
11090;SDS011;5599;52.210;21.046;2023-03-19T11:24:38;8.45;;;7.63;;
11090;SDS011;5599;52.210;21.046;2023-03-19T11:27:08;10.60;;;7.75;;
11090;SDS011;5599;52.210;21.046;2023-03-19T11:29:40;12.25;;;7.72;;
11090;SDS011;5599;52.210;21.046;2023-03-19T11:32:15;10.77;;;8.23;;
11090;SDS011;5599;52.210;21.046;2023-03-19T11:35:06;9.32;;;8.27;;
11090;SDS011;5599;52.210;21.046;2023-03-19T11:37:46;8.63;;;7.68;;
11090;SDS011;5599;52.210;21.046;2023-03-19T11:40:28;13.45;;;10.45;;
11090;SDS011;5599;52.210;21.046;2023-03-19T11:43:10;11.52;;;9.75;;
11090;SDS011;5599;52.210;21.046;2023-03-19T11:46:18;9.65;;;8.48;;
11090;SDS011;5599;52.210;21.046;2023-03-19T11:49:03;9.07;;;8.00;;
11090;SDS011;5599;52.210;21.046;2023-03-19T11:51:45;9.38;;;8.43;;
11090;SDS011;5599;52.210;21.046;2023-03-19T11:54:20;10.30;;;7.93;;
11090;SDS011;5599;52.210;21.046;2023-03-19T11:56:55;9.75;;;8.63;;
11090;SDS011;5599;52.210;21.046;2023-03-19T11:59:46;9.23;;;7.80;;
11090;SDS011;5599;52.210;21.046;2023-03-19T12:05:38;9.02;;;7.93;;
11090;SDS011;5599;52.210;21.046;2023-03-19T12:08:18;8.75;;;7.82;;
11090;SDS011;5599;52.210;21.046;2023-03-19T12:11:00;8.93;;;8.02;;
11090;SDS011;5599;52.210;21.046;2023-03-19T12:13:36;8.98;;;8.10;;
11090;SDS011;5599;52.210;21.046;2023-03-19T12:16:17;9.32;;;8.35;;
11090;SDS011;5599;52.210;21.046;2023-03-19T12:22:08;10.02;;;7.40;;
11090;SDS011;5599;52.210;21.046;2023-03-19T12:24:54;9.13;;;8.07;;
11090;SDS011;5599;52.210;21.046;2023-03-19T12:27:46;9.10;;;7.90;;
11090;SDS011;5599;52.210;21.046;2023-03-19T12:30:25;9.98;;;7.47;;
11090;SDS011;5599;52.210;21.046;2023-03-19T12:33:06;9.82;;;7.47;;
11090;SDS011;5599;52.210;21.046;2023-03-19T12:35:48;8.43;;;7.55;;
11090;SDS011;5599;52.210;21.046;2023-03-19T12:38:22;9.05;;;8.15;;
11090;SDS011;5599;52.210;21.046;2023-03-19T12:40:56;9.70;;;8.00;;
11090;SDS011;5599;52.210;21.046;2023-03-19T12:43:31;8.23;;;7.38;;
11090;SDS011;5599;52.210;21.046;2023-03-19T12:46:06;9.15;;;7.47;;
11090;SDS011;5599;52.210;21.046;2023-03-19T12:48:40;10.65;;;8.27;;
11090;SDS011;5599;52.210;21.046;2023-03-19T12:51:14;9.75;;;7.82;;
11090;SDS011;5599;52.210;21.046;2023-03-19T12:53:48;10.55;;;8.05;;
11090;SDS011;5599;52.210;21.046;2023-03-19T12:56:26;8.65;;;7.32;;
11090;SDS011;5599;52.210;21.046;2023-03-19T12:59:04;9.15;;;7.95;;
11090;SDS011;5599;52.210;21.046;2023-03-19T13:01:42;8.52;;;7.63;;
11090;SDS011;5599;52.210;21.046;2023-03-19T13:04:15;12.95;;;7.68;;
11090;SDS011;5599;52.210;21.046;2023-03-19T13:06:50;10.18;;;8.23;;
11090;SDS011;5599;52.210;21.046;2023-03-19T13:09:26;8.25;;;7.20;;
11090;SDS011;5599;52.210;21.046;2023-03-19T13:12:00;8.52;;;7.63;;
11090;SDS011;5599;52.210;21.046;2023-03-19T13:14:35;9.23;;;8.10;;
11090;SDS011;5599;52.210;21.046;2023-03-19T13:17:13;8.95;;;7.60;;
11090;SDS011;5599;52.210;21.046;2023-03-19T13:19:53;9.52;;;8.25;;
11090;SDS011;5599;52.210;21.046;2023-03-19T13:22:26;9.27;;;7.70;;
11090;SDS011;5599;52.210;21.046;2023-03-19T13:25:00;10.20;;;7.82;;
11090;SDS011;5599;52.210;21.046;2023-03-19T13:27:32;9.32;;;7.60;;
11090;SDS011;5599;52.210;21.046;2023-03-19T13:30:11;9.73;;;8.00;;
11090;SDS011;5599;52.210;21.046;2023-03-19T13:32:47;8.55;;;7.55;;
11090;SDS011;5599;52.210;21.046;2023-03-19T13:35:26;8.23;;;6.72;;
11090;SDS011;5599;52.210;21.046;2023-03-19T13:38:12;9.15;;;7.30;;
11090;SDS011;5599;52.210;21.046;2023-03-19T13:40:47;8.55;;;7.57;;
11090;SDS011;5599;52.210;21.046;2023-03-19T13:46:25;8.15;;;7.35;;
11090;SDS011;5599;52.210;21.046;2023-03-19T13:49:07;8.93;;;7.63;;
11090;SDS011;5599;52.210;21.046;2023-03-19T13:51:53;9.00;;;7.00;;
11090;SDS011;5599;52.210;21.046;2023-03-19T13:54:33;8.70;;;7.07;;
11090;SDS011;5599;52.210;21.046;2023-03-19T13:57:16;8.60;;;7.70;;
11090;SDS011;5599;52.210;21.046;2023-03-19T14:03:17;8.13;;;7.32;;
11090;SDS011;5599;52.210;21.046;2023-03-19T14:05:49;7.78;;;6.97;;
11090;SDS011;5599;52.210;21.046;2023-03-19T14:08:22;7.90;;;7.10;;
11090;SDS011;5599;52.210;21.046;2023-03-19T14:10:55;7.57;;;6.30;;
11090;SDS011;5599;52.210;21.046;2023-03-19T14:13:28;7.75;;;6.95;;
11090;SDS011;5599;52.210;21.046;2023-03-19T14:16:06;8.52;;;7.50;;
11090;SDS011;5599;52.210;21.046;2023-03-19T14:18:41;7.93;;;7.05;;
11090;SDS011;5599;52.210;21.046;2023-03-19T14:21:13;9.82;;;7.47;;
11090;SDS011;5599;52.210;21.046;2023-03-19T14:23:52;7.88;;;6.70;;
11090;SDS011;5599;52.210;21.046;2023-03-19T14:26:27;8.80;;;7.20;;
11090;SDS011;5599;52.210;21.046;2023-03-19T14:28:58;8.52;;;7.22;;
11090;SDS011;5599;52.210;21.046;2023-03-19T14:31:34;9.32;;;7.50;;
11090;SDS011;5599;52.210;21.046;2023-03-19T14:34:14;8.20;;;7.07;;
11090;SDS011;5599;52.210;21.046;2023-03-19T14:36:50;7.85;;;6.90;;
11090;SDS011;5599;52.210;21.046;2023-03-19T14:39:29;8.25;;;6.85;;
11090;SDS011;5599;52.210;21.046;2023-03-19T14:42:03;8.88;;;7.60;;
11090;SDS011;5599;52.210;21.046;2023-03-19T14:53:57;7.25;;;6.53;;
11090;SDS011;5599;52.210;21.046;2023-03-19T14:56:31;7.63;;;6.25;;
11090;SDS011;5599;52.210;21.046;2023-03-19T14:59:04;7.82;;;6.93;;
11090;SDS011;5599;52.210;21.046;2023-03-19T15:01:39;8.25;;;6.90;;
11090;SDS011;5599;52.210;21.046;2023-03-19T15:04:13;7.55;;;6.85;;
11090;SDS011;5599;52.210;21.046;2023-03-19T15:06:45;8.32;;;7.53;;
11090;SDS011;5599;52.210;21.046;2023-03-19T15:09:22;7.45;;;6.60;;
11090;SDS011;5599;52.210;21.046;2023-03-19T15:12:11;8.90;;;6.85;;
11090;SDS011;5599;52.210;21.046;2023-03-19T15:15:03;7.70;;;6.82;;
11090;SDS011;5599;52.210;21.046;2023-03-19T15:17:43;9.05;;;7.18;;
11090;SDS011;5599;52.210;21.046;2023-03-19T15:20:30;7.53;;;6.55;;
11090;SDS011;5599;52.210;21.046;2023-03-19T15:23:05;7.88;;;6.80;;
11090;SDS011;5599;52.210;21.046;2023-03-19T15:25:54;8.10;;;6.57;;
11090;SDS011;5599;52.210;21.046;2023-03-19T15:28:27;8.48;;;6.75;;
11090;SDS011;5599;52.210;21.046;2023-03-19T15:31:06;9.38;;;6.85;;
11090;SDS011;5599;52.210;21.046;2023-03-19T15:33:55;8.02;;;6.85;;
11090;SDS011;5599;52.210;21.046;2023-03-19T15:36:27;8.55;;;7.18;;